General Aviation Weather

Text Reports

Enter one or more of the following location identifiers separated by a space:

Zip Code, Four-Character ICAO or Three-Character IATA airport codes.

METAR - Aviation Routine Weather Report
KAAF - Apalachicola, Florida
Updated at 7:53 AM GMT on September 04, 2015 (3:53 AM EDT):
METAR KAAF 040753Z AUTO 00000KT 10SM CLR 23/23 A2994 RMK AO2 SLP137 T02280228
TAF - Terminal Area Forecast
KAAF - Apalachicola, Florida
Updated at 7:53 AM GMT on September 04, 2015 (3:53 AM EDT):
No TAF is currently available for this location.
Decoded:
No decoded TAF is available.
PIREP - Pilot Weather Report
KAAF - Apalachicola, Florida
Updated at 7:53 AM GMT on September 04, 2015 (3:53 AM EDT):
No PIREP is currently available for this location.
AIRMET - Airmens Meteorological Information
KAAF - Apalachicola, Florida
Updated at 7:53 AM GMT on September 04, 2015 (3:53 AM EDT):
No AIRMET is currently available for this location.
SIGMET - Significant Meteorological Information
KAAF - Apalachicola, Florida
Updated at 7:53 AM GMT on September 04, 2015 (3:53 AM EDT):
No SIGMET is currently available for this location.
NOTAM - Notice to Airmen
KAAF - Apalachicola, Florida
Updated at 7:53 AM GMT on September 04, 2015 (3:53 AM EDT):
No NOTAM is currently available for this location.
Forecast Area
KAAF - Apalachicola, Florida
Updated at 7:53 AM GMT on September 04, 2015 (3:53 AM EDT):
No NOTAM is currently available for this location.
Aviation Weather Maps